LEBB/BIO METAR and TAF weather

Enter ICAO airport designator
Station Type Date Time Source
LEBB METAR 2020/07/15 00:30 UTC NOAA

LEBB 150030Z AUTO 06003KT 020V120 9999 FEW050 16/14 Q1022


Station Type Date Time Source
LEBB Decoded METAR 2020/07/15 00:30 UTC NOAA

Bilbao / Sondica, Spain (LEBB) 43-18N 002-56W 37M
Jul 14, 2020 - 08:30 PM EDT / 2020.07.15 0030 UTC
Wind: from the ENE (060 degrees) at 3 MPH (3 KT) (direction variable):0
Visibility: greater than 7 mile(s):0
Sky conditions: mostly clear
Temperature: 60 F (16 C)
Dew Point: 57 F (14 C)
Relative Humidity: 87%
Pressure (altimeter): 30.18 in. Hg (1022 hPa)
ob: LEBB 150030Z AUTO 06003KT 020V120 9999 FEW050 16/14 Q1022
cycle: 0

Station Type Date Time Source
LEBB TAF 2020/07/14 18:27 UTC NOAA

TAF LEBB 141700Z 1418/1518 VRB05KT 9999 SCT030 TX24/1513Z TN16/1506Z
TEMPO 1418/1419 33010KT
TEMPO 1421/1509 BKN010 PROB40
TEMPO 1423/1508 3000 RADZ BR BKN005 BKN010
TEMPO 1512/1518 34010KT

Example: see airport list